Time;durP1;ratioP1;P1;durP2;ratioP2;P2;SDS_P1;SDS_P2;PMS_P1;PMS_P2;Temp;Humidity;BMP_temperature;BMP_pressure;BME280_temperature;BME280_humidity;BME280_pressure;Samples;Min_cycle;Max_cycle;Signal;HPM_P1;HPM_P2
2023/02/25 00:02:09;;;;;;;5.05;2.03;;;;;;;;;;5013681;28;20466;-73
2023/02/25 00:04:35;;;;;;;7.45;2.13;;;;;;;;;;5005758;28;20030;-73
2023/02/25 00:07:01;;;;;;;5.28;1.45;;;;;;;;;;5015213;28;20136;-74
2023/02/25 00:09:27;;;;;;;4.03;1.50;;;;;;;;;;5030642;28;20037;-74
2023/02/25 00:11:52;;;;;;;12.52;1.77;;;;;;;;;;5016843;28;20453;-73
2023/02/25 00:14:18;;;;;;;7.38;1.40;;;;;;;;;;5007198;28;20038;-75
2023/02/25 00:16:43;;;;;;;6.63;1.40;;;;;;;;;;5015764;28;20125;-74
2023/02/25 00:19:09;;;;;;;12.68;1.83;;;;;;;;;;5015487;28;20038;-73
2023/02/25 00:21:35;;;;;;;4.13;1.92;;;;;;;;;;5012715;28;20044;-73
2023/02/25 00:24:00;;;;;;;3.70;1.58;;;;;;;;;;5007571;28;20085;-73
2023/02/25 00:26:26;;;;;;;12.15;2.58;;;;;;;;;;5018369;28;20040;-73
2023/02/25 00:28:52;;;;;;;17.65;2.83;;;;;;;;;;5014822;28;20117;-73
2023/02/25 00:31:22;;;;;;;7.88;2.00;;;;;;;;;;5021517;28;20046;-73
2023/02/25 00:33:48;;;;;;;8.27;2.75;;;;;;;;;;5014884;28;20033;-73
2023/02/25 00:36:19;;;;;;;12.30;2.60;;;;;;;;;;5016834;28;20046;-73
2023/02/25 00:38:49;;;;;;;15.30;2.72;;;;;;;;;;5014575;28;20061;-74
2023/02/25 00:41:16;;;;;;;9.35;3.13;;;;;;;;;;5022408;28;20037;-73
2023/02/25 00:43:47;;;;;;;15.13;2.85;;;;;;;;;;5013353;28;20041;-73
2023/02/25 00:46:12;;;;;;;15.38;3.28;;;;;;;;;;5016456;28;20489;-74
2023/02/25 00:48:38;;;;;;;19.05;4.03;;;;;;;;;;5014641;28;20038;-73
2023/02/25 00:51:28;;;;;;;7.45;3.28;;;;;;;;;;5017898;28;20157;-73
2023/02/25 00:53:55;;;;;;;14.48;2.88;;;;;;;;;;5012769;28;20504;-73
2023/02/25 00:56:22;;;;;;;10.18;2.75;;;;;;;;;;5008833;28;20049;-73
2023/02/25 00:58:49;;;;;;;8.48;3.35;;;;;;;;;;5016284;28;20062;-74
2023/02/25 01:01:28;;;;;;;11.88;2.97;;;;;;;;;;5002509;28;20100;-75
2023/02/25 01:03:55;;;;;;;10.77;3.30;;;;;;;;;;5013160;28;20390;-73
2023/02/25 01:06:21;;;;;;;12.85;3.97;;;;;;;;;;5026887;28;20072;-73
2023/02/25 01:08:46;;;;;;;10.73;3.75;;;;;;;;;;5029442;28;20092;-73
2023/02/25 01:11:19;;;;;;;10.38;3.33;;;;;;;;;;5025844;28;20033;-73
2023/02/25 01:13:46;;;;;;;7.70;2.97;;;;;;;;;;5028637;28;20061;-73
2023/02/25 01:16:15;;;;;;;5.43;2.58;;;;;;;;;;5028489;28;20128;-73
2023/02/25 01:18:42;;;;;;;9.90;2.45;;;;;;;;;;5012784;28;20025;-73
2023/02/25 01:21:16;;;;;;;9.68;2.80;;;;;;;;;;5013488;28;20415;-73
2023/02/25 01:23:43;;;;;;;8.25;2.22;;;;;;;;;;5017258;28;20124;-74
2023/02/25 01:26:08;;;;;;;11.45;2.65;;;;;;;;;;5020076;28;20052;-73
2023/02/25 01:28:34;;;;;;;5.03;2.15;;;;;;;;;;5013778;28;20393;-73
2023/02/25 01:30:59;;;;;;;9.75;2.47;;;;;;;;;;5033501;28;20390;-74
2023/02/25 01:33:24;;;;;;;10.93;2.40;;;;;;;;;;5013564;28;20501;-73
2023/02/25 01:35:50;;;;;;;16.70;2.65;;;;;;;;;;5022885;28;20029;-73
2023/02/25 01:38:15;;;;;;;6.15;2.75;;;;;;;;;;5006113;28;21124;-78
2023/02/25 01:40:41;;;;;;;10.88;2.65;;;;;;;;;;5005900;28;20435;-75
2023/02/25 01:43:14;;;;;;;17.25;2.75;;;;;;;;;;5005147;28;20117;-73
2023/02/25 01:45:43;;;;;;;13.88;2.40;;;;;;;;;;5012860;28;20458;-73
2023/02/25 01:48:18;;;;;;;9.27;2.45;;;;;;;;;;5011767;28;20482;-73
2023/02/25 01:50:50;;;;;;;11.10;2.67;;;;;;;;;;5029819;28;20038;-73
2023/02/25 01:53:20;;;;;;;8.15;2.13;;;;;;;;;;5005603;28;20095;-74
2023/02/25 01:55:46;;;;;;;6.85;2.42;;;;;;;;;;5026741;28;20041;-73
2023/02/25 01:58:12;;;;;;;11.73;3.53;;;;;;;;;;5025145;28;20034;-73
2023/02/25 02:00:37;;;;;;;8.35;2.42;;;;;;;;;;5009367;28;20114;-73
2023/02/25 02:03:03;;;;;;;7.72;2.33;;;;;;;;;;5007211;28;20114;-73
2023/02/25 02:05:47;;;;;;;6.10;2.88;;;;;;;;;;5009517;28;20467;-73
2023/02/25 02:08:12;;;;;;;4.18;2.10;;;;;;;;;;5035245;28;20048;-73
2023/02/25 02:10:38;;;;;;;6.70;2.28;;;;;;;;;;5020989;28;20116;-73
2023/02/25 02:13:03;;;;;;;8.05;2.15;;;;;;;;;;5019806;28;20060;-73
2023/02/25 02:15:31;;;;;;;6.55;2.90;;;;;;;;;;5022979;28;20037;-74
2023/02/25 02:18:45;;;;;;;7.60;2.28;;;;;;;;;;5019852;28;20049;-73
2023/02/25 02:21:21;;;;;;;11.13;2.63;;;;;;;;;;5016496;28;20045;-73
2023/02/25 02:24:24;;;;;;;6.25;2.28;;;;;;;;;;5020286;28;20044;-73
2023/02/25 02:27:03;;;;;;;16.77;2.22;;;;;;;;;;5005690;28;20510;-73
2023/02/25 02:29:44;;;;;;;5.90;2.05;;;;;;;;;;5010248;28;20433;-73
2023/02/25 02:32:18;;;;;;;6.38;1.80;;;;;;;;;;5019536;28;20037;-73
2023/02/25 02:35:19;;;;;;;3.80;1.90;;;;;;;;;;5011773;28;20092;-73
2023/02/25 02:38:11;;;;;;;5.15;2.22;;;;;;;;;;5005505;28;20045;-74
2023/02/25 02:40:51;;;;;;;13.07;1.77;;;;;;;;;;5018614;28;20118;-73
2023/02/25 02:43:35;;;;;;;10.85;2.05;;;;;;;;;;5019646;28;20038;-74
2023/02/25 02:46:34;;;;;;;10.23;2.08;;;;;;;;;;5035985;28;20040;-74
2023/02/25 02:49:37;;;;;;;5.82;2.22;;;;;;;;;;4996456;28;20041;-73
2023/02/25 02:52:06;;;;;;;7.78;2.70;;;;;;;;;;4984192;28;20057;-73
2023/02/25 02:54:37;;;;;;;13.18;2.20;;;;;;;;;;5013562;28;20393;-73
2023/02/25 02:57:04;;;;;;;10.20;2.13;;;;;;;;;;5019722;28;20042;-73
2023/02/25 02:59:51;;;;;;;3.70;2.15;;;;;;;;;;5014493;28;20053;-76
2023/02/25 03:02:22;;;;;;;6.25;2.45;;;;;;;;;;5025379;28;20037;-74
2023/02/25 03:04:49;;;;;;;9.43;2.20;;;;;;;;;;5021368;28;20437;-73
2023/02/25 03:07:16;;;;;;;6.70;1.95;;;;;;;;;;5023661;28;20536;-74
2023/02/25 03:09:46;;;;;;;7.95;2.15;;;;;;;;;;5015033;28;20140;-73
2023/02/25 03:12:11;;;;;;;6.03;2.22;;;;;;;;;;5023396;28;20393;-73
2023/02/25 03:14:37;;;;;;;4.88;2.22;;;;;;;;;;5015344;28;20049;-73
2023/02/25 03:17:13;;;;;;;4.57;1.83;;;;;;;;;;5018691;28;20080;-73
2023/02/25 03:19:43;;;;;;;15.75;2.25;;;;;;;;;;5032098;28;20041;-73
2023/02/25 03:22:21;;;;;;;8.65;2.10;;;;;;;;;;5014152;28;20033;-73
2023/02/25 03:25:15;;;;;;;3.90;1.33;;;;;;;;;;5022096;28;20125;-73
2023/02/25 03:27:45;;;;;;;4.55;1.45;;;;;;;;;;5014728;28;20053;-73
2023/02/25 03:30:20;;;;;;;7.82;1.70;;;;;;;;;;5012663;28;20050;-73
2023/02/25 03:32:50;;;;;;;3.97;1.55;;;;;;;;;;5011786;28;20042;-73
2023/02/25 03:35:18;;;;;;;3.15;1.60;;;;;;;;;;5037040;28;20527;-73
2023/02/25 03:37:47;;;;;;;7.75;1.92;;;;;;;;;;5020853;28;20125;-73
2023/02/25 03:40:14;;;;;;;15.75;2.42;;;;;;;;;;5016686;28;20409;-73
2023/02/25 03:42:51;;;;;;;9.07;1.42;;;;;;;;;;5014480;28;20026;-73
2023/02/25 03:45:17;;;;;;;7.68;1.30;;;;;;;;;;5035960;28;20124;-72
2023/02/25 03:47:43;;;;;;;3.67;1.33;;;;;;;;;;5016043;28;20442;-73
2023/02/25 03:50:13;;;;;;;6.20;1.60;;;;;;;;;;5016772;28;20046;-73
2023/02/25 03:52:39;;;;;;;2.88;0.93;;;;;;;;;;5013647;28;20129;-73
2023/02/25 03:55:05;;;;;;;9.77;1.58;;;;;;;;;;5022439;28;20037;-73
2023/02/25 03:57:42;;;;;;;3.15;1.25;;;;;;;;;;5020382;28;20086;-73
2023/02/25 04:00:17;;;;;;;2.10;1.17;;;;;;;;;;5035985;28;20037;-73
2023/02/25 04:02:45;;;;;;;8.65;1.60;;;;;;;;;;5011402;28;20034;-73
2023/02/25 04:05:11;;;;;;;7.25;1.38;;;;;;;;;;5028806;28;20034;-73
2023/02/25 04:07:37;;;;;;;9.57;1.65;;;;;;;;;;5028142;28;20541;-73
2023/02/25 04:10:04;;;;;;;3.00;1.50;;;;;;;;;;5017928;28;20108;-74
2023/02/25 04:12:30;;;;;;;8.88;1.40;;;;;;;;;;5015168;28;20052;-75
2023/02/25 04:14:55;;;;;;;5.28;1.92;;;;;;;;;;5016002;28;20056;-73
2023/02/25 04:17:21;;;;;;;9.57;1.33;;;;;;;;;;5015269;28;20029;-73
2023/02/25 04:19:46;;;;;;;11.38;1.90;;;;;;;;;;5014282;28;20149;-73
2023/02/25 04:22:12;;;;;;;3.72;1.55;;;;;;;;;;5015143;28;20116;-72
2023/02/25 04:24:37;;;;;;;5.93;1.17;;;;;;;;;;5024005;28;20148;-73
2023/02/25 04:27:02;;;;;;;5.25;1.50;;;;;;;;;;5005147;28;20050;-74
2023/02/25 04:29:28;;;;;;;8.23;1.58;;;;;;;;;;5015514;28;20096;-73
2023/02/25 04:31:54;;;;;;;7.90;1.35;;;;;;;;;;5014258;28;20037;-73
2023/02/25 04:34:19;;;;;;;3.38;1.70;;;;;;;;;;5008886;28;20041;-73
2023/02/25 04:36:45;;;;;;;4.43;1.35;;;;;;;;;;5007531;28;20466;-73
2023/02/25 04:39:11;;;;;;;8.48;1.33;;;;;;;;;;5012881;28;20030;-72
2023/02/25 04:41:38;;;;;;;3.20;1.70;;;;;;;;;;5021146;28;20069;-73
2023/02/25 04:44:05;;;;;;;8.05;1.23;;;;;;;;;;5014662;28;20049;-73
2023/02/25 04:46:32;;;;;;;7.47;1.70;;;;;;;;;;5014507;28;20108;-73
2023/02/25 04:48:58;;;;;;;8.70;1.92;;;;;;;;;;5013002;28;20541;-73
2023/02/25 04:51:23;;;;;;;5.25;1.33;;;;;;;;;;5016270;28;20140;-73
2023/02/25 04:53:49;;;;;;;22.58;2.55;;;;;;;;;;5015295;28;20042;-74
2023/02/25 04:56:14;;;;;;;4.70;1.60;;;;;;;;;;5016081;28;20077;-73
2023/02/25 04:58:39;;;;;;;7.45;1.20;;;;;;;;;;5008056;28;20034;-73
2023/02/25 05:01:07;;;;;;;8.93;1.63;;;;;;;;;;5020106;28;20507;-73
2023/02/25 05:03:34;;;;;;;3.58;1.52;;;;;;;;;;5011944;28;20492;-73
2023/02/25 05:05:59;;;;;;;2.60;1.40;;;;;;;;;;5022355;28;20080;-73
2023/02/25 05:08:25;;;;;;;7.82;1.35;;;;;;;;;;5000295;28;20093;-73
2023/02/25 05:10:51;;;;;;;7.68;1.70;;;;;;;;;;5012496;28;20057;-73
2023/02/25 05:13:17;;;;;;;2.25;1.25;;;;;;;;;;5023514;28;20110;-73
2023/02/25 05:15:43;;;;;;;7.47;1.45;;;;;;;;;;5013117;28;20030;-72
2023/02/25 05:18:08;;;;;;;6.30;1.20;;;;;;;;;;4995749;28;20180;-73
2023/02/25 05:20:44;;;;;;;5.82;1.25;;;;;;;;;;5007989;28;20535;-73
2023/02/25 05:23:10;;;;;;;2.88;1.30;;;;;;;;;;5015659;28;20036;-73
2023/02/25 05:25:40;;;;;;;17.25;1.70;;;;;;;;;;5020912;28;20045;-73
2023/02/25 05:28:06;;;;;;;5.93;1.85;;;;;;;;;;5005768;28;20041;-73
2023/02/25 05:30:32;;;;;;;4.07;1.42;;;;;;;;;;5017188;28;20128;-73
2023/02/25 05:32:57;;;;;;;4.78;1.40;;;;;;;;;;5029188;28;20124;-73
2023/02/25 05:35:22;;;;;;;7.50;1.58;;;;;;;;;;5014319;28;20025;-73
2023/02/25 05:37:48;;;;;;;4.88;1.85;;;;;;;;;;5004278;28;20038;-73
2023/02/25 05:40:13;;;;;;;6.20;1.48;;;;;;;;;;5020822;28;20033;-73
2023/02/25 05:42:39;;;;;;;16.38;2.05;;;;;;;;;;5012670;28;20026;-72
2023/02/25 05:45:07;;;;;;;4.43;1.52;;;;;;;;;;5022807;28;20041;-73
2023/02/25 05:47:33;;;;;;;7.63;1.67;;;;;;;;;;5005132;28;20069;-73
2023/02/25 05:49:58;;;;;;;14.55;1.92;;;;;;;;;;5014631;28;20060;-73
2023/02/25 05:52:23;;;;;;;10.52;2.00;;;;;;;;;;5012988;28;20052;-73
2023/02/25 05:54:49;;;;;;;5.72;1.83;;;;;;;;;;5038976;28;20037;-73
2023/02/25 05:57:14;;;;;;;2.85;1.42;;;;;;;;;;5017788;28;20069;-73
2023/02/25 05:59:40;;;;;;;4.30;1.33;;;;;;;;;;5028962;28;20041;-73
2023/02/25 06:02:05;;;;;;;10.05;2.28;;;;;;;;;;5013904;28;20858;-73
2023/02/25 06:04:31;;;;;;;4.45;2.10;;;;;;;;;;5014469;28;20030;-74
2023/02/25 06:06:56;;;;;;;10.75;1.88;;;;;;;;;;5002824;28;20045;-73
2023/02/25 06:09:21;;;;;;;10.32;1.90;;;;;;;;;;4999027;28;20057;-75
2023/02/25 06:11:47;;;;;;;10.10;1.85;;;;;;;;;;5009564;28;20450;-73
2023/02/25 06:14:14;;;;;;;9.05;1.73;;;;;;;;;;5003877;28;20509;-73
2023/02/25 06:16:40;;;;;;;4.70;1.40;;;;;;;;;;5010645;28;20470;-73
2023/02/25 06:19:06;;;;;;;15.10;1.95;;;;;;;;;;5012413;28;20059;-73
2023/02/25 06:21:33;;;;;;;4.10;1.30;;;;;;;;;;5014352;28;20068;-74
2023/02/25 06:23:59;;;;;;;11.07;1.80;;;;;;;;;;5012371;28;20045;-73
2023/02/25 06:26:26;;;;;;;4.53;0.90;;;;;;;;;;5020348;28;20036;-73
2023/02/25 06:28:51;;;;;;;8.40;1.60;;;;;;;;;;5011954;28;20046;-73
2023/02/25 06:31:18;;;;;;;8.55;1.60;;;;;;;;;;5016656;28;20040;-73
2023/02/25 06:33:45;;;;;;;11.35;1.95;;;;;;;;;;5012104;28;20029;-73
2023/02/25 06:36:12;;;;;;;3.95;1.48;;;;;;;;;;5014088;28;20048;-73
2023/02/25 06:38:38;;;;;;;12.60;2.05;;;;;;;;;;5016457;28;20037;-73
2023/02/25 06:41:08;;;;;;;7.95;1.30;;;;;;;;;;5011062;28;20390;-73
2023/02/25 06:43:35;;;;;;;11.93;1.52;;;;;;;;;;4996325;28;20125;-74
2023/02/25 06:46:04;;;;;;;9.38;1.50;;;;;;;;;;5010473;28;20042;-73
2023/02/25 06:48:29;;;;;;;10.85;1.75;;;;;;;;;;5028172;28;20034;-74
2023/02/25 06:50:54;;;;;;;14.60;1.70;;;;;;;;;;5017465;28;20092;-73
2023/02/25 06:53:21;;;;;;;10.30;1.30;;;;;;;;;;5013994;28;20084;-73
2023/02/25 06:55:48;;;;;;;12.18;1.92;;;;;;;;;;5009240;28;20054;-73
2023/02/25 06:58:13;;;;;;;9.55;1.70;;;;;;;;;;5022380;28;20033;-73
2023/02/25 07:00:41;;;;;;;10.50;1.45;;;;;;;;;;5018212;28;20038;-74
2023/02/25 07:03:10;;;;;;;10.57;1.63;;;;;;;;;;5017546;28;20033;-73
2023/02/25 07:05:35;;;;;;;15.57;2.13;;;;;;;;;;5016866;28;20038;-73
2023/02/25 07:08:01;;;;;;;9.57;2.40;;;;;;;;;;5016882;28;20044;-73
2023/02/25 07:10:26;;;;;;;13.60;1.70;;;;;;;;;;5028379;28;20041;-73
2023/02/25 07:12:52;;;;;;;16.40;1.92;;;;;;;;;;5012632;28;20042;-73
2023/02/25 07:15:18;;;;;;;27.20;2.17;;;;;;;;;;5017345;28;20037;-73
2023/02/25 07:17:44;;;;;;;19.83;2.30;;;;;;;;;;5005196;28;20375;-73
2023/02/25 07:20:10;;;;;;;12.70;1.67;;;;;;;;;;5017401;28;20045;-73
2023/02/25 07:22:35;;;;;;;13.90;2.15;;;;;;;;;;5016786;28;20462;-73
2023/02/25 07:25:01;;;;;;;11.20;1.92;;;;;;;;;;5017051;28;20034;-73
2023/02/25 07:27:26;;;;;;;7.57;1.20;;;;;;;;;;5026638;28;20033;-73
2023/02/25 07:29:53;;;;;;;16.60;1.35;;;;;;;;;;5027853;28;20140;-73
2023/02/25 07:32:19;;;;;;;4.70;1.38;;;;;;;;;;5016317;28;20092;-73
2023/02/25 07:34:44;;;;;;;4.40;1.33;;;;;;;;;;5017910;28;20033;-73
2023/02/25 07:37:11;;;;;;;4.93;1.40;;;;;;;;;;5017883;28;20049;-73
2023/02/25 07:39:37;;;;;;;11.20;1.40;;;;;;;;;;5020377;28;20026;-73
2023/02/25 07:42:03;;;;;;;9.65;1.48;;;;;;;;;;5028489;28;20049;-73
2023/02/25 07:44:28;;;;;;;10.52;2.38;;;;;;;;;;5015455;28;20455;-73
2023/02/25 07:46:53;;;;;;;7.60;1.35;;;;;;;;;;5008279;28;20052;-73
2023/02/25 07:49:19;;;;;;;5.97;1.48;;;;;;;;;;5018639;28;20030;-73
2023/02/25 07:51:44;;;;;;;7.30;2.47;;;;;;;;;;5011294;28;20478;-73
2023/02/25 07:54:10;;;;;;;8.85;1.52;;;;;;;;;;5013787;28;20025;-73
2023/02/25 07:56:35;;;;;;;11.02;1.67;;;;;;;;;;5010771;28;20552;-73
2023/02/25 07:59:01;;;;;;;12.57;1.63;;;;;;;;;;5009791;28;20052;-73
2023/02/25 08:01:29;;;;;;;8.07;1.38;;;;;;;;;;5009752;28;20038;-73
2023/02/25 08:03:57;;;;;;;11.77;1.40;;;;;;;;;;5022222;28;20176;-73
2023/02/25 08:06:24;;;;;;;10.30;1.73;;;;;;;;;;5013613;28;20049;-73
2023/02/25 08:08:54;;;;;;;8.43;1.88;;;;;;;;;;5015176;28;20462;-73
2023/02/25 08:11:21;;;;;;;9.23;1.58;;;;;;;;;;5015418;28;20042;-73
2023/02/25 08:13:46;;;;;;;8.95;1.27;;;;;;;;;;5015322;28;20069;-73
2023/02/25 08:16:14;;;;;;;9.98;1.45;;;;;;;;;;5015344;28;20061;-73
2023/02/25 08:18:43;;;;;;;9.82;1.52;;;;;;;;;;5014011;28;20052;-73
2023/02/25 08:21:10;;;;;;;8.18;1.45;;;;;;;;;;5015108;28;20049;-73
2023/02/25 08:23:35;;;;;;;11.43;1.63;;;;;;;;;;5014859;28;20117;-73
2023/02/25 08:26:01;;;;;;;13.38;1.60;;;;;;;;;;5003568;28;20448;-73
2023/02/25 08:28:30;;;;;;;4.95;1.65;;;;;;;;;;5019315;28;20029;-73
2023/02/25 08:30:56;;;;;;;8.15;1.30;;;;;;;;;;5012138;28;20053;-73
2023/02/25 08:33:22;;;;;;;10.30;1.85;;;;;;;;;;4997615;28;20038;-73
2023/02/25 08:35:49;;;;;;;9.73;1.52;;;;;;;;;;5027227;28;20117;-74
2023/02/25 08:38:14;;;;;;;11.95;1.90;;;;;;;;;;5013684;28;20045;-73
2023/02/25 08:40:40;;;;;;;8.27;1.52;;;;;;;;;;5006897;28;20520;-73
2023/02/25 08:43:06;;;;;;;10.40;1.85;;;;;;;;;;5012947;28;20038;-73
2023/02/25 08:45:31;;;;;;;12.85;1.70;;;;;;;;;;5013374;28;20524;-73
2023/02/25 08:47:57;;;;;;;6.18;1.42;;;;;;;;;;5011558;28;20042;-73
2023/02/25 08:50:22;;;;;;;10.23;1.45;;;;;;;;;;5008949;28;20042;-73
2023/02/25 08:52:49;;;;;;;13.15;1.60;;;;;;;;;;5006197;28;20095;-73
2023/02/25 08:55:15;;;;;;;5.00;1.55;;;;;;;;;;5014235;28;20505;-73
2023/02/25 08:57:41;;;;;;;8.27;1.33;;;;;;;;;;5021480;28;20069;-74
2023/02/25 09:00:10;;;;;;;12.13;1.70;;;;;;;;;;5014584;28;20648;-73
2023/02/25 09:02:37;;;;;;;9.57;1.50;;;;;;;;;;5010506;28;20125;-74
2023/02/25 09:05:03;;;;;;;10.35;1.23;;;;;;;;;;5015471;28;20042;-73
2023/02/25 09:07:28;;;;;;;9.50;2.17;;;;;;;;;;5000843;28;20375;-73
2023/02/25 09:09:54;;;;;;;9.05;1.77;;;;;;;;;;5009623;28;20394;-73
2023/02/25 09:12:20;;;;;;;6.22;1.70;;;;;;;;;;5013429;28;20053;-73
2023/02/25 09:14:45;;;;;;;7.65;1.40;;;;;;;;;;5007017;28;20026;-73
2023/02/25 09:17:11;;;;;;;6.85;1.48;;;;;;;;;;5005832;28;20049;-73
2023/02/25 09:19:39;;;;;;;11.60;1.50;;;;;;;;;;5009748;28;20034;-73
2023/02/25 09:22:06;;;;;;;8.43;1.30;;;;;;;;;;5008794;28;20544;-73
2023/02/25 09:24:32;;;;;;;5.50;1.30;;;;;;;;;;5001783;28;20046;-73
2023/02/25 09:26:59;;;;;;;8.88;1.58;;;;;;;;;;5013982;28;20046;-73
2023/02/25 09:29:25;;;;;;;9.43;1.50;;;;;;;;;;5014297;28;20023;-73
2023/02/25 09:31:52;;;;;;;12.20;1.92;;;;;;;;;;5010042;28;20117;-73
2023/02/25 09:34:19;;;;;;;14.90;1.50;;;;;;;;;;5012592;28;20069;-74
2023/02/25 09:36:44;;;;;;;5.28;1.20;;;;;;;;;;5018394;28;20029;-73
2023/02/25 09:39:11;;;;;;;8.45;1.58;;;;;;;;;;5012734;28;20405;-73
2023/02/25 09:41:48;;;;;;;10.80;2.03;;;;;;;;;;5013549;28;20397;-74
2023/02/25 09:44:23;;;;;;;7.47;1.60;;;;;;;;;;5017462;28;20034;-73
2023/02/25 09:47:15;;;;;;;9.30;1.63;;;;;;;;;;5012628;28;20038;-74
2023/02/25 09:50:02;;;;;;;5.05;1.40;;;;;;;;;;5006326;28;20030;-73
2023/02/25 09:52:31;;;;;;;7.35;1.42;;;;;;;;;;5007266;28;20069;-73
2023/02/25 09:55:25;;;;;;;5.97;1.48;;;;;;;;;;5001471;28;20475;-73
2023/02/25 09:58:23;;;;;;;3.53;1.20;;;;;;;;;;5012700;28;20463;-72
2023/02/25 10:01:00;;;;;;;14.23;1.77;;;;;;;;;;5012040;28;20099;-74
2023/02/25 10:03:47;;;;;;;8.45;2.10;;;;;;;;;;5008571;28;20042;-74
2023/02/25 10:06:32;;;;;;;7.13;1.80;;;;;;;;;;5014097;28;20045;-77
2023/02/25 10:10:00;;;;;;;11.65;1.45;;;;;;;;;;5011727;28;20045;-73
2023/02/25 10:12:38;;;;;;;9.23;1.83;;;;;;;;;;4965244;28;20065;-74
2023/02/25 10:15:35;;;;;;;9.68;2.05;;;;;;;;;;4988825;28;20045;-74
2023/02/25 10:18:27;;;;;;;5.72;1.42;;;;;;;;;;5012025;28;20069;-74
2023/02/25 10:20:58;;;;;;;11.13;1.63;;;;;;;;;;4998425;28;20394;-73
2023/02/25 10:23:24;;;;;;;10.95;1.70;;;;;;;;;;5002195;28;20030;-73
2023/02/25 10:26:09;;;;;;;8.02;1.73;;;;;;;;;;4999276;28;20109;-73
2023/02/25 10:28:35;;;;;;;7.85;1.40;;;;;;;;;;5016573;28;20057;-73
2023/02/25 10:31:14;;;;;;;6.75;1.30;;;;;;;;;;5032366;28;20038;-74
2023/02/25 10:33:40;;;;;;;12.52;1.75;;;;;;;;;;5009183;28;20478;-75
2023/02/25 10:36:13;;;;;;;7.03;1.40;;;;;;;;;;5017146;28;20065;-73
2023/02/25 10:38:44;;;;;;;11.20;2.03;;;;;;;;;;5032194;28;20148;-73
2023/02/25 10:41:10;;;;;;;11.20;1.90;;;;;;;;;;5015109;28;20046;-73
2023/02/25 10:43:36;;;;;;;11.50;1.70;;;;;;;;;;5017080;28;20022;-73
2023/02/25 10:46:09;;;;;;;6.00;1.55;;;;;;;;;;5013616;28;20038;-73
2023/02/25 10:48:35;;;;;;;7.57;1.17;;;;;;;;;;5022582;28;20045;-73
2023/02/25 10:51:12;;;;;;;7.82;1.70;;;;;;;;;;5020275;28;20026;-73
2023/02/25 10:53:39;;;;;;;8.95;1.73;;;;;;;;;;5014042;28;20038;-73
2023/02/25 10:56:05;;;;;;;5.35;1.42;;;;;;;;;;5012743;28;20040;-74
2023/02/25 10:58:33;;;;;;;8.98;1.77;;;;;;;;;;5008455;28;20026;-73
2023/02/25 11:01:18;;;;;;;7.35;1.35;;;;;;;;;;5016289;28;20504;-73
2023/02/25 11:03:55;;;;;;;6.90;1.63;;;;;;;;;;5015234;28;20037;-73
2023/02/25 11:06:30;;;;;;;9.55;1.95;;;;;;;;;;5004568;28;20049;-73
2023/02/25 11:08:58;;;;;;;8.93;1.73;;;;;;;;;;5015235;28;20026;-73
2023/02/25 11:11:32;;;;;;;6.45;1.23;;;;;;;;;;5015003;28;20049;-75
2023/02/25 11:14:07;;;;;;;7.03;1.60;;;;;;;;;;4998954;28;20057;-75
2023/02/25 11:16:36;;;;;;;12.13;2.40;;;;;;;;;;5016226;28;20091;-73
2023/02/25 11:19:16;;;;;;;8.43;1.77;;;;;;;;;;5010891;28;20031;-73
2023/02/25 11:21:42;;;;;;;4.63;1.08;;;;;;;;;;5015699;28;21371;-73
2023/02/25 11:24:16;;;;;;;4.97;1.20;;;;;;;;;;5009237;28;20503;-73
2023/02/25 11:26:43;;;;;;;;;;;;;;;;;;5016580;28;20042;-74
2023/02/25 11:29:17;;;;;;;10.48;1.92;;;;;;;;;;5016143;28;19913;-73
2023/02/25 11:31:47;;;;;;;6.65;1.20;;;;;;;;;;5014787;28;20045;-73
2023/02/25 11:34:20;;;;;;;8.65;1.60;;;;;;;;;;5014518;28;20127;-73
2023/02/25 11:36:46;;;;;;;7.30;1.40;;;;;;;;;;5033896;28;20030;-74
2023/02/25 11:39:19;;;;;;;5.68;1.25;;;;;;;;;;5014449;28;20037;-73
2023/02/25 11:41:48;;;;;;;7.75;2.03;;;;;;;;;;5008661;28;20446;-73
2023/02/25 11:44:22;;;;;;;7.85;1.35;;;;;;;;;;5015843;28;20121;-73
2023/02/25 11:46:51;;;;;;;;;;;;;;;;;;5005017;28;20041;-76
2023/02/25 11:49:30;;;;;;;6.55;1.20;;;;;;;;;;5019422;28;19913;-73
2023/02/25 11:52:02;;;;;;;6.55;1.40;;;;;;;;;;5004415;28;20049;-74
2023/02/25 11:54:51;;;;;;;7.35;1.45;;;;;;;;;;5015790;28;20038;-74
2023/02/25 11:58:02;;;;;;;4.25;1.63;;;;;;;;;;5014008;28;20064;-73
2023/02/25 12:00:34;;;;;;;14.32;1.73;;;;;;;;;;4991673;28;20490;-73
2023/02/25 12:03:32;;;;;;;11.68;1.90;;;;;;;;;;5014138;28;20044;-73
2023/02/25 12:06:37;;;;;;;7.43;1.25;;;;;;;;;;5008884;28;20038;-74
2023/02/25 12:09:11;;;;;;;;;;;;;;;;;;5001732;28;20054;-74
2023/02/25 12:11:59;;;;;;;2.63;0.88;;;;;;;;;;5019507;28;19953;-73
2023/02/25 12:14:36;;;;;;;7.57;1.50;;;;;;;;;;5016003;28;20038;-75
2023/02/25 12:17:05;;;;;;;8.40;1.63;;;;;;;;;;5015399;28;20113;-73
2023/02/25 12:20:03;;;;;;;9.00;1.77;;;;;;;;;;5001301;28;20042;-73
2023/02/25 12:23:03;;;;;;;9.38;1.83;;;;;;;;;;5002066;28;20033;-73
2023/02/25 12:25:54;;;;;;;8.85;1.63;;;;;;;;;;4998192;28;20061;-73
2023/02/25 12:28:31;;;;;;;6.03;1.42;;;;;;;;;;5014645;28;20393;-73
2023/02/25 12:31:24;;;;;;;15.57;2.67;;;;;;;;;;5014364;28;20501;-73
2023/02/25 12:34:08;;;;;;;8.27;1.20;;;;;;;;;;5008855;28;20127;-73
2023/02/25 12:36:52;;;;;;;;;;;;;;;;;;5029195;28;20122;-74
2023/02/25 12:39:57;;;;;;;9.40;1.20;;;;;;;;;;5011796;28;19917;-73
2023/02/25 12:42:32;;;;;;;12.82;1.60;;;;;;;;;;5009000;28;20398;-73
2023/02/25 12:45:29;;;;;;;12.65;1.90;;;;;;;;;;5005753;28;20554;-74
2023/02/25 12:48:00;;;;;;;6.75;1.55;;;;;;;;;;5014334;28;20049;-73
2023/02/25 12:50:34;;;;;;;5.22;1.02;;;;;;;;;;5016810;28;20386;-73
2023/02/25 12:53:10;;;;;;;4.25;0.88;;;;;;;;;;5008378;28;20180;-79
2023/02/25 12:55:53;;;;;;;7.90;1.45;;;;;;;;;;5006169;28;20038;-73
2023/02/25 12:58:29;;;;;;;14.98;1.77;;;;;;;;;;5010753;28;20041;-73
2023/02/25 13:01:42;;;;;;;4.75;1.23;;;;;;;;;;5020128;28;20044;-74
2023/02/25 13:04:26;;;;;;;3.55;1.08;;;;;;;;;;4995007;28;20065;-74
2023/02/25 13:07:06;;;;;;;8.70;1.73;;;;;;;;;;5017446;28;20091;-73
2023/02/25 13:10:07;;;;;;;5.70;1.58;;;;;;;;;;5005754;28;20394;-76
2023/02/25 13:12:45;;;;;;;8.63;1.45;;;;;;;;;;4988521;28;20130;-75
2023/02/25 13:15:35;;;;;;;8.63;1.27;;;;;;;;;;5013573;28;20052;-75
2023/02/25 13:18:28;;;;;;;7.35;1.52;;;;;;;;;;5015738;28;20068;-74
2023/02/25 13:21:27;;;;;;;10.52;1.60;;;;;;;;;;5014164;28;20049;-73
2023/02/25 13:24:04;;;;;;;5.97;1.55;;;;;;;;;;5013991;28;20440;-73
2023/02/25 13:26:58;;;;;;;7.25;1.83;;;;;;;;;;5011092;28;20135;-73
2023/02/25 13:29:48;;;;;;;5.57;1.52;;;;;;;;;;5015320;28;20134;-73
2023/02/25 13:32:32;;;;;;;8.73;2.10;;;;;;;;;;5004439;28;20473;-73
2023/02/25 13:35:17;;;;;;;7.70;1.63;;;;;;;;;;5012712;28;20030;-75
2023/02/25 13:37:56;;;;;;;6.43;1.42;;;;;;;;;;5008084;28;20397;-73
2023/02/25 13:40:24;;;;;;;10.70;1.92;;;;;;;;;;5022346;28;20036;-73
2023/02/25 13:42:55;;;;;;;6.80;1.80;;;;;;;;;;5017574;28;20129;-74
2023/02/25 13:45:30;;;;;;;11.40;1.80;;;;;;;;;;5034116;28;20041;-73
2023/02/25 13:48:26;;;;;;;11.02;1.67;;;;;;;;;;5006449;28;20499;-73
2023/02/25 13:51:20;;;;;;;5.35;1.35;;;;;;;;;;5009187;28;20036;-74
2023/02/25 13:54:12;;;;;;;7.13;1.63;;;;;;;;;;5002321;28;20057;-73
2023/02/25 13:57:14;;;;;;;8.35;2.03;;;;;;;;;;5017138;28;20040;-73
2023/02/25 13:59:53;;;;;;;8.07;1.75;;;;;;;;;;5006533;28;20424;-73
2023/02/25 14:02:37;;;;;;;6.65;1.67;;;;;;;;;;5028300;28;20033;-73
2023/02/25 14:05:59;;;;;;;11.20;1.85;;;;;;;;;;5013422;28;20054;-75
2023/02/25 14:08:51;;;;;;;8.70;2.00;;;;;;;;;;4985099;28;20046;-73
2023/02/25 14:11:37;;;;;;;13.88;2.28;;;;;;;;;;4973242;28;20125;-73
2023/02/25 14:14:24;;;;;;;4.80;1.52;;;;;;;;;;5004487;28;20531;-73
2023/02/25 14:17:02;;;;;;;12.55;1.60;;;;;;;;;;5008231;28;20034;-74
2023/02/25 14:19:39;;;;;;;13.20;1.73;;;;;;;;;;5007247;28;20403;-73
2023/02/25 14:22:19;;;;;;;9.02;1.60;;;;;;;;;;5012761;28;20041;-73
2023/02/25 14:25:04;;;;;;;9.85;2.20;;;;;;;;;;4992507;28;20459;-73
2023/02/25 14:27:50;;;;;;;;;;;;;;;;;;5012608;28;20655;-73
2023/02/25 14:30:34;;;;;;;1.85;0.82;;;;;;;;;;5029905;28;20384;-75
2023/02/25 14:33:16;;;;;;;9.40;1.50;;;;;;;;;;5013168;28;20042;-73
2023/02/25 14:36:09;;;;;;;9.45;2.20;;;;;;;;;;5013318;28;20037;-73
2023/02/25 14:38:47;;;;;;;7.22;1.60;;;;;;;;;;5010772;28;20402;-73
2023/02/25 14:41:37;;;;;;;6.43;1.35;;;;;;;;;;5011291;28;20025;-74
2023/02/25 14:44:10;;;;;;;6.63;1.33;;;;;;;;;;5013103;28;20120;-73
2023/02/25 14:46:47;;;;;;;6.53;1.30;;;;;;;;;;5030772;28;20037;-74
2023/02/25 14:49:16;;;;;;;9.20;1.70;;;;;;;;;;5028110;28;20046;-73
2023/02/25 14:51:44;;;;;;;3.70;1.30;;;;;;;;;;5012055;28;20050;-73
2023/02/25 14:54:41;;;;;;;5.85;1.52;;;;;;;;;;5015781;28;20122;-73
2023/02/25 14:57:12;;;;;;;9.45;1.55;;;;;;;;;;5010262;28;20117;-73
2023/02/25 14:59:56;;;;;;;8.77;1.60;;;;;;;;;;5014291;28;20037;-73
2023/02/25 15:02:34;;;;;;;6.43;1.20;;;;;;;;;;5007650;28;20038;-73
2023/02/25 15:05:22;;;;;;;9.32;1.20;;;;;;;;;;5003410;28;20069;-74
2023/02/25 15:07:50;;;;;;;5.85;0.98;;;;;;;;;;5002142;28;20038;-76
2023/02/25 15:10:57;;;;;;;6.93;1.20;;;;;;;;;;5015016;28;20049;-73
2023/02/25 15:13:51;;;;;;;5.32;1.40;;;;;;;;;;5004098;28;20087;-73
2023/02/25 15:16:40;;;;;;;5.78;2.72;;;;;;;;;;5022097;28;20042;-76